logo tempoitalia

Diretta Meteo Firenze-Peretola, Italiagiovedì 30 giugno ore 21:50

Mappa
Sereno 26 °C Sereno 24 Ore: T.min 17 T.max 34
Ponente Nord Km/h 5.5 Punto di rugiada: 7 °C Umidità: 29% Visibilità: 10 Km
Il sole sorge alle: 05:34 Il sole tramonta alle: 21:03
30 Giugno 2022 21:50 tempo osservato: Sereno Sereno 26 29 1012 vento: Nord N 5.5
30 Giugno 2022 21:20 tempo osservato: Sereno Sereno 27 28 1011 vento: Nord O/NO 9.3
30 Giugno 2022 20:50 tempo osservato: Sereno Sereno 29 28 1011 vento: Nord O/NO 11.1
30 Giugno 2022 20:20 tempo osservato: Sereno Sereno 30 28 1011 vento: Nord NO 11.1
30 Giugno 2022 19:50 tempo osservato: Sereno Sereno 31 27 1011 vento: Nord O/NO 14.8
30 Giugno 2022 19:20 tempo osservato: Sereno Sereno 32 24 1011 vento: Nord O/NO 14.8
30 Giugno 2022 18:50 tempo osservato: Sereno Sereno 33 21 1011 vento: Nord O 13
30 Giugno 2022 18:20 tempo osservato: Sereno Sereno 33 24 1011 vento: Nord O/NO 13
30 Giugno 2022 17:50 tempo osservato: Sereno Sereno 33 26 1011 vento: Nord O/NO 13
30 Giugno 2022 17:20 tempo osservato: Sereno Sereno 34 24 1011 vento: Nord O/SO 13
30 Giugno 2022 16:50 tempo osservato: Sereno Sereno 34 26 1011 vento: Nord O 13
30 Giugno 2022 16:20 tempo osservato: Sereno Sereno 34 26 1011 vento: Nord O 11.1
30 Giugno 2022 15:50 tempo osservato: Sereno Sereno 34 28 1012 vento: Nord O 11.1
30 Giugno 2022 15:20 tempo osservato: Sereno Sereno 34 24 1012 vento: Nord O/SO 11.1
30 Giugno 2022 14:50 tempo osservato: Sereno Sereno 33 24 1012 vento: Nord O 13
30 Giugno 2022 14:20 tempo osservato: Sereno Sereno 33 27 1012 vento: Nord SO 13
30 Giugno 2022 13:50 tempo osservato: Sereno Sereno 32 25 1012 vento: Nord O 18.5
30 Giugno 2022 13:20 tempo osservato: Sereno Sereno 31 31 1012 vento: Nord O/SO 13
30 Giugno 2022 12:50 tempo osservato: Sereno Sereno 31 33 1012 vento: Nord N 7.4
30 Giugno 2022 12:20 tempo osservato: Sereno Sereno 30 40 1013 vento: Nord N 9.3
30 Giugno 2022 11:50 tempo osservato: Sereno Sereno 29 42 1013 vento: Nord N 7.4
30 Giugno 2022 11:20 tempo osservato: Sereno Sereno 28 45 1013 vento: Nord N 7.4
30 Giugno 2022 10:50 tempo osservato: Sereno Sereno 27 50 1013 vento: Nord N 3.7
30 Giugno 2022 10:20 tempo osservato: Sereno Sereno 26 61 1013 vento: Nord N 3.7
30 Giugno 2022 09:50 tempo osservato: Sereno Sereno 24 64 1013 vento: Nord N 5.5
30 Giugno 2022 09:20 tempo osservato: Sereno Sereno 24 69 1013 vento: Nord N 3.7
30 Giugno 2022 08:50 tempo osservato: Sereno Sereno 23 73 1013 vento: Nord N 3.7
30 Giugno 2022 08:20 tempo osservato: Sereno Sereno 22 73 1013 vento: Nord N 1.8
30 Giugno 2022 07:50 tempo osservato: Sereno Sereno 21 77 1013 vento: Nord N 1.8
30 Giugno 2022 07:20 tempo osservato: Sereno Sereno 20 82 1013 vento: Nord N 1.8
30 Giugno 2022 06:50 tempo osservato: Sereno Sereno 18 93 1013 vento: Nord N 3.7
30 Giugno 2022 06:20 tempo osservato: Sereno Sereno 18 93 1013 vento: Nord N 3.7
30 Giugno 2022 05:50 tempo osservato: Sereno Sereno 17 93 1013 vento: Nord N 3.7
30 Giugno 2022 05:20 tempo osservato: Sereno Sereno 18 88 1013 vento: Nord N 5.5
30 Giugno 2022 04:50 tempo osservato: Sereno Sereno 18 93 1013 vento: Nord E 9.3
30 Giugno 2022 04:20 tempo osservato: Sereno Sereno 18 93 1013 vento: Nord N 5.5
30 Giugno 2022 03:50 tempo osservato: Sereno Sereno 18 88 1013 vento: Nord E 7.4
30 Giugno 2022 03:20 tempo osservato: Sereno Sereno 18 93 1013 vento: Nord E 7.4
30 Giugno 2022 02:50 tempo osservato: Sereno Sereno 18 93 1013 vento: Nord E 7.4
30 Giugno 2022 02:20 tempo osservato: Sereno Sereno 19 88 1013 vento: Nord N 3.7
30 Giugno 2022 01:50 tempo osservato: Sereno Sereno 19 88 1013 vento: Nord N 1.8
30 Giugno 2022 01:20 tempo osservato: Sereno Sereno 20 82 1013 vento: Nord N 5.5
30 Giugno 2022 00:50 tempo osservato: Sereno Sereno 20 88 1013 vento: Nord N 1.8
30 Giugno 2022 00:20 tempo osservato: Sereno Sereno 21 77 1013 vento: Nord N 1.8
29 Giugno 2022 23:50 tempo osservato: Sereno Sereno 21 77 1013 vento: Nord N 3.7
29 Giugno 2022 23:20 tempo osservato: Sereno Sereno 22 78 1013 vento: Nord N 3.7
29 Giugno 2022 22:50 tempo osservato: Sereno Sereno 24 69 1013 vento: Nord O 7.4